Terminal Aerodrome Forecast
Issued by NWS

Home | Current Version | Previous Version | Text Only | Print | Product List | Glossary Off
Versions: 1 2 3 4 5 6 7 8 9 10 11 12 13 14 15 16 17 18 19 20 21 22 23 24 25 26 27

000
FTUS43 KBIS 200900 AAA
TAFJMS
TAF AMD
KJMS 200921Z 2009/2106 32017G25KT P6SM BKN035 OVC050
      TEMPO 2009/2013 32017G22KT -RASN BKN025 OVC035
     FM201300 32020G28KT P6SM BKN020 OVC035
     FM201500 32023G30KT P6SM SCT020 BKN040
     FM201800 32027G37KT P6SM VCSH SCT025 BKN050
     FM210200 33018G24KT P6SM SCT080
     FM210400 32015G20KT P6SM SCT050=

USA.gov is the U.S. government's official web portal to all federal, state and local government web resources and services.